createdAt,value
2019-06-26T00:00:16.232Z,6.85
2019-06-26T00:05:20.460Z,7.25
2019-06-26T00:10:24.680Z,7.20
2019-06-26T00:15:28.910Z,7.30
2019-06-26T00:20:33.151Z,8.25
2019-06-26T00:25:37.394Z,7.08
2019-06-26T00:30:41.854Z,7.37
2019-06-26T00:35:46.103Z,6.70
2019-06-26T00:40:50.306Z,7.47
2019-06-26T00:45:54.527Z,7.90
2019-06-26T00:50:58.757Z,7.65
2019-06-26T00:56:03.007Z,8.28
2019-06-26T01:01:07.262Z,7.80
2019-06-26T01:06:30.524Z,7.25
2019-06-26T01:11:34.776Z,8.08
2019-06-26T01:16:39.006Z,8.15
2019-06-26T01:21:43.594Z,8.13
2019-06-26T01:26:47.806Z,8.48
2019-06-26T01:31:52.036Z,8.85
2019-06-26T01:36:56.262Z,9.23
2019-06-26T01:42:00.528Z,8.68
2019-06-26T01:47:04.758Z,8.58
2019-06-26T01:52:09.484Z,9.35
2019-06-26T01:57:13.703Z,8.98
2019-06-26T02:02:17.983Z,9.80
2019-06-26T02:07:22.198Z,10.18
2019-06-26T02:12:26.445Z,9.53
2019-06-26T02:17:30.667Z,9.68
2019-06-26T02:22:35.734Z,9.68
2019-06-26T02:27:40.041Z,10.00
2019-06-26T02:32:44.293Z,10.23
2019-06-26T02:37:48.536Z,10.60
2019-06-26T02:42:52.764Z,10.43
2019-06-26T02:47:56.993Z,11.15
2019-06-26T02:53:01.288Z,10.23
2019-06-26T02:58:05.529Z,10.08
2019-06-26T03:03:09.820Z,10.13
2019-06-26T03:08:14.063Z,11.57
2019-06-26T03:13:18.306Z,11.25
2019-06-26T03:18:22.562Z,11.33
2019-06-26T03:23:26.813Z,11.05
2019-06-26T03:28:31.025Z,12.15
2019-06-26T03:33:35.253Z,11.10
2019-06-26T03:38:39.495Z,12.70
2019-06-26T03:43:43.755Z,12.20
2019-06-26T03:48:47.974Z,12.25
2019-06-26T03:53:52.202Z,12.05
2019-06-26T03:58:56.423Z,12.63
2019-06-26T04:04:00.696Z,13.50
2019-06-26T04:09:05.991Z,13.18
2019-06-26T04:14:10.222Z,13.53
2019-06-26T04:19:14.449Z,12.60
2019-06-26T04:24:18.673Z,15.00
2019-06-26T04:29:23.233Z,13.72
2019-06-26T04:34:27.486Z,14.53
2019-06-26T04:39:31.721Z,16.05
2019-06-26T04:44:35.980Z,15.18
2019-06-26T04:49:40.269Z,16.52
2019-06-26T04:54:44.522Z,16.12
2019-06-26T04:59:48.770Z,16.25
2019-06-26T05:04:53.019Z,16.65
2019-06-26T05:09:57.258Z,16.70
2019-06-26T05:15:01.486Z,16.95
2019-06-26T05:20:06.898Z,17.60
2019-06-26T05:25:12.449Z,17.77
2019-06-26T05:30:17.188Z,18.40
2019-06-26T05:35:21.905Z,18.20
2019-06-26T05:40:26.262Z,17.07
2019-06-26T05:45:30.499Z,16.85
2019-06-26T05:50:34.733Z,17.55
2019-06-26T05:55:38.990Z,17.27
2019-06-26T06:00:43.258Z,17.20
2019-06-26T06:05:47.492Z,17.70
2019-06-26T06:10:51.742Z,16.85
2019-06-26T06:15:56.005Z,18.82
2019-06-26T06:21:00.229Z,17.67
2019-06-26T06:26:04.480Z,17.45
2019-06-26T06:31:08.802Z,16.57
2019-06-26T06:36:13.027Z,16.77
2019-06-26T06:41:17.285Z,16.60
2019-06-26T06:46:21.495Z,15.95
2019-06-26T06:51:25.722Z,15.63
2019-06-26T06:56:29.955Z,16.40
2019-06-26T07:01:34.239Z,16.77
2019-06-26T07:06:38.561Z,15.30
2019-06-26T07:11:42.794Z,15.20
2019-06-26T07:16:47.034Z,14.45
2019-06-26T07:21:51.279Z,14.95
2019-06-26T07:26:55.527Z,14.40
2019-06-26T07:31:59.742Z,14.43
2019-06-26T07:37:03.986Z,13.13
2019-06-26T07:42:08.313Z,12.58
2019-06-26T07:47:22.431Z,12.90
2019-06-26T07:52:18.502Z,12.20
2019-06-26T07:57:22.950Z,11.10
2019-06-26T08:02:27.215Z,9.63
2019-06-26T08:07:31.477Z,10.05
2019-06-26T08:12:35.739Z,9.90
2019-06-26T08:17:39.965Z,9.88
2019-06-26T08:22:44.258Z,8.75
2019-06-26T08:27:48.502Z,8.78
2019-06-26T08:32:52.747Z,9.35
2019-06-26T08:38:09.407Z,9.38
2019-06-26T08:43:03.013Z,9.90
2019-06-26T08:48:18.825Z,9.40
2019-06-26T08:53:13.263Z,9.25
2019-06-26T08:58:17.588Z,15.18
2019-06-26T09:03:21.795Z,10.98
2019-06-26T09:08:26.228Z,8.98
2019-06-26T09:13:30.649Z,8.85
2019-06-26T09:18:36.277Z,8.60
2019-06-26T09:23:40.697Z,8.00
2019-06-26T09:28:44.918Z,7.30
2019-06-26T09:33:49.147Z,7.55
2019-06-26T09:38:53.357Z,7.40
2019-06-26T09:43:57.586Z,8.43
2019-06-26T09:49:01.857Z,7.87
2019-06-26T09:54:06.159Z,7.60
2019-06-26T09:59:10.388Z,8.25
2019-06-26T10:04:14.624Z,8.18
2019-06-26T10:09:18.859Z,7.28
2019-06-26T10:14:23.179Z,6.87
2019-06-26T10:19:27.660Z,7.20
2019-06-26T10:24:31.968Z,6.85
2019-06-26T10:29:36.214Z,7.90
2019-06-26T10:34:40.459Z,7.92
2019-06-26T10:39:44.686Z,7.47
2019-06-26T10:44:48.936Z,7.00
2019-06-26T10:49:53.171Z,7.20
2019-06-26T10:54:57.414Z,7.35
2019-06-26T11:00:01.742Z,7.50
2019-06-26T11:05:07.382Z,7.75
2019-06-26T11:10:12.021Z,6.65
2019-06-26T11:15:16.617Z,6.62
2019-06-26T11:20:20.957Z,6.85
2019-06-26T11:25:25.181Z,6.78
2019-06-26T11:30:30.749Z,6.90
2019-06-26T11:35:34.976Z,6.90
2019-06-26T11:40:39.201Z,7.30
2019-06-26T11:45:43.580Z,6.42
2019-06-26T11:50:47.883Z,7.15
2019-06-26T11:55:52.161Z,6.17
2019-06-26T12:00:56.346Z,6.47
2019-06-26T12:06:15.512Z,7.25
2019-06-26T12:11:06.563Z,6.55
2019-06-26T12:16:11.605Z,7.40
2019-06-26T12:21:15.895Z,6.87
2019-06-26T12:26:20.134Z,6.83
2019-06-26T12:31:24.413Z,7.10
2019-06-26T12:36:29.073Z,6.58
2019-06-26T12:41:33.343Z,6.97
2019-06-26T12:46:37.684Z,6.90
2019-06-26T12:51:41.980Z,7.30
2019-06-26T12:56:46.313Z,7.35
2019-06-26T13:01:50.618Z,6.60
2019-06-26T13:06:54.845Z,7.62
2019-06-26T13:11:59.072Z,7.00
2019-06-26T13:17:03.313Z,7.05
2019-06-26T13:22:07.546Z,7.58
2019-06-26T13:27:11.772Z,7.50
2019-06-26T13:32:16.848Z,6.85
2019-06-26T13:37:21.315Z,7.55
2019-06-26T13:42:25.547Z,7.20
2019-06-26T13:47:29.776Z,7.12
2019-06-26T13:52:34.042Z,8.00
2019-06-26T13:57:38.257Z,7.60
2019-06-26T14:02:42.492Z,8.53
2019-06-26T14:07:46.727Z,7.97
2019-06-26T14:12:50.952Z,7.55
2019-06-26T14:17:55.694Z,7.42
2019-06-26T14:22:59.912Z,8.00
2019-06-26T14:28:04.165Z,8.45
2019-06-26T14:33:08.392Z,7.40
2019-06-26T14:38:12.631Z,7.87
2019-06-26T14:43:16.849Z,7.20
2019-06-26T14:48:21.210Z,7.55
2019-06-26T14:53:25.499Z,7.75
2019-06-26T14:58:29.724Z,7.30
2019-06-26T15:03:33.949Z,7.67
2019-06-26T15:08:38.189Z,7.75
2019-06-26T15:13:42.427Z,7.72
2019-06-26T15:18:46.685Z,7.12
2019-06-26T15:23:50.938Z,7.45
2019-06-26T15:28:55.294Z,7.62
2019-06-26T15:33:59.533Z,7.33
2019-06-26T15:39:06.355Z,7.12
2019-06-26T15:44:10.576Z,6.92
2019-06-26T15:49:14.807Z,7.10
2019-06-26T15:54:19.123Z,7.15
2019-06-26T15:59:23.373Z,6.95
2019-06-26T16:04:27.644Z,6.95
2019-06-26T16:09:31.918Z,6.50
2019-06-26T16:14:36.172Z,6.45
2019-06-26T16:19:40.405Z,6.80
2019-06-26T16:24:44.713Z,6.10
2019-06-26T16:29:48.948Z,6.20
2019-06-26T16:34:53.176Z,6.20
2019-06-26T16:39:57.759Z,5.83
2019-06-26T16:45:01.996Z,5.60
2019-06-26T16:50:07.610Z,4.92
2019-06-26T16:55:11.867Z,5.90
2019-06-26T17:00:16.331Z,5.25
2019-06-26T17:05:20.757Z,6.28
2019-06-26T17:10:24.974Z,5.60
2019-06-26T17:15:29.262Z,5.87
2019-06-26T17:20:33.508Z,6.10
2019-06-26T17:25:37.739Z,5.42
2019-06-26T17:30:41.973Z,5.70
2019-06-26T17:35:46.249Z,5.10
2019-06-26T17:40:50.527Z,5.28
2019-06-26T17:45:55.418Z,4.70
2019-06-26T17:50:59.688Z,5.47
2019-06-26T17:56:03.938Z,5.20
2019-06-26T18:01:08.164Z,3.72
2019-06-26T18:06:12.402Z,3.70
2019-06-26T18:11:16.644Z,3.60
2019-06-26T18:16:20.879Z,3.77
2019-06-26T18:21:25.108Z,3.60
2019-06-26T18:26:29.349Z,3.85
2019-06-26T18:31:34.796Z,4.15
2019-06-26T18:36:39.031Z,3.72
2019-06-26T18:41:43.268Z,4.00
2019-06-26T18:46:47.535Z,4.42
2019-06-26T18:51:51.793Z,4.45
2019-06-26T18:56:56.023Z,4.58
2019-06-26T19:02:00.252Z,4.40
2019-06-26T19:07:04.487Z,4.45
2019-06-26T19:12:08.735Z,5.03
2019-06-26T19:17:12.972Z,4.85
2019-06-26T19:22:17.213Z,5.55
2019-06-26T19:27:21.441Z,5.83
2019-06-26T19:32:25.673Z,5.28
2019-06-26T19:37:29.923Z,5.53
2019-06-26T19:42:34.159Z,5.20
2019-06-26T19:47:38.404Z,5.15
2019-06-26T19:52:42.683Z,6.00
2019-06-26T19:57:46.946Z,5.75
2019-06-26T20:02:52.285Z,8.03
2019-06-26T20:07:57.213Z,8.60
2019-06-26T20:13:01.499Z,6.00
2019-06-26T20:18:06.502Z,4.90
2019-06-26T20:23:10.717Z,4.90
2019-06-26T20:28:14.959Z,6.37
2019-06-26T20:33:19.205Z,5.65
2019-06-26T20:38:23.434Z,5.40
2019-06-26T20:43:27.670Z,5.50
2019-06-26T20:48:31.960Z,4.83
2019-06-26T20:53:36.204Z,4.70
2019-06-26T20:58:40.448Z,4.90
2019-06-26T21:03:44.685Z,5.03
2019-06-26T21:08:48.932Z,5.60
2019-06-26T21:13:53.143Z,5.90
2019-06-26T21:18:57.371Z,4.37
2019-06-26T21:24:01.613Z,5.03
2019-06-26T21:29:05.881Z,4.15
2019-06-26T21:34:10.101Z,4.20
2019-06-26T21:39:14.333Z,4.05
2019-06-26T21:44:18.555Z,3.83
2019-06-26T21:49:22.793Z,3.62
2019-06-26T21:54:27.056Z,3.35
2019-06-26T21:59:31.402Z,3.40
2019-06-26T22:04:35.654Z,3.15
2019-06-26T22:09:39.889Z,2.33
2019-06-26T22:14:44.129Z,2.62
2019-06-26T22:19:48.636Z,3.17
2019-06-26T22:24:52.856Z,2.12
2019-06-26T22:29:57.104Z,2.90
2019-06-26T22:35:01.386Z,2.75
2019-06-26T22:40:06.152Z,3.00
2019-06-26T22:45:10.772Z,3.58
2019-06-26T22:50:15.209Z,2.90
2019-06-26T22:55:19.472Z,3.42
2019-06-26T23:00:23.712Z,3.75
2019-06-26T23:05:27.991Z,3.40
2019-06-26T23:10:32.221Z,3.40
2019-06-26T23:15:36.448Z,3.50
2019-06-26T23:20:41.309Z,3.27
2019-06-26T23:25:45.543Z,3.65
2019-06-26T23:30:49.781Z,3.95
2019-06-26T23:35:54.062Z,4.17
2019-06-26T23:40:58.344Z,4.20
2019-06-26T23:46:02.543Z,4.10
2019-06-26T23:51:06.779Z,4.12
2019-06-26T23:56:11.048Z,3.77
